sensor_id;sensor_type;location;lat;lon;timestamp;pressure;altitude;pressure_sealevel;temperature;humidity
40982;BME280;26708;50.304;19.028;2023-02-21T00:00:46;97681.03;;;10.22;53.61
40982;BME280;26708;50.304;19.028;2023-02-21T00:03:03;97580.75;;;9.71;53.61
40982;BME280;26708;50.304;19.028;2023-02-21T00:05:21;97650.72;;;10.10;53.77
40982;BME280;26708;50.304;19.028;2023-02-21T00:07:42;97729.47;;;10.47;54.00
40982;BME280;26708;50.304;19.028;2023-02-21T00:10:00;97686.16;;;10.28;54.20
40982;BME280;26708;50.304;19.028;2023-02-21T00:12:19;97740.69;;;10.53;54.18
40982;BME280;26708;50.304;19.028;2023-02-21T00:14:37;97707.06;;;10.31;54.04
40982;BME280;26708;50.304;19.028;2023-02-21T00:16:55;97622.41;;;9.83;53.69
40982;BME280;26708;50.304;19.028;2023-02-21T00:19:16;97551.53;;;9.44;53.29
40982;BME280;26708;50.304;19.028;2023-02-21T00:21:33;97594.97;;;9.51;53.12
40982;BME280;26708;50.304;19.028;2023-02-21T00:23:53;97708.00;;;10.25;53.37
40982;BME280;26708;50.304;19.028;2023-02-21T00:26:16;97576.81;;;9.43;53.41
40982;BME280;26708;50.304;19.028;2023-02-21T00:28:35;97600.09;;;9.58;53.69
40982;BME280;26708;50.304;19.028;2023-02-21T00:30:52;97750.28;;;10.53;54.00
40982;BME280;26708;50.304;19.028;2023-02-21T00:33:16;97707.06;;;10.31;54.85
40982;BME280;26708;50.304;19.028;2023-02-21T00:35:45;97650.19;;;9.89;55.74
40982;BME280;26708;50.304;19.028;2023-02-21T00:38:03;97708.47;;;9.95;56.33
40982;BME280;26708;50.304;19.028;2023-02-21T00:40:27;97770.75;;;10.27;56.54
40982;BME280;26708;50.304;19.028;2023-02-21T00:42:44;97553.09;;;8.95;57.05
40982;BME280;26708;50.304;19.028;2023-02-21T00:45:12;97756.97;;;10.16;57.95
40982;BME280;26708;50.304;19.028;2023-02-21T00:47:30;97689.53;;;9.78;58.85
40982;BME280;26708;50.304;19.028;2023-02-21T00:49:50;97542.09;;;8.72;59.21
40982;BME280;26708;50.304;19.028;2023-02-21T00:52:09;97702.66;;;9.74;59.90
40982;BME280;26708;50.304;19.028;2023-02-21T00:54:27;97712.38;;;9.61;60.01
40982;BME280;26708;50.304;19.028;2023-02-21T00:56:48;97711.44;;;9.67;60.32
40982;BME280;26708;50.304;19.028;2023-02-21T00:59:05;97583.47;;;9.02;60.38
40982;BME280;26708;50.304;19.028;2023-02-21T01:04:28;97453.09;;;8.25;60.60
40982;BME280;26708;50.304;19.028;2023-02-21T01:06:45;97581.78;;;8.96;60.44
40982;BME280;26708;50.304;19.028;2023-02-21T01:09:08;97469.66;;;8.21;60.39
40982;BME280;26708;50.304;19.028;2023-02-21T01:17:41;97463.63;;;8.17;61.21
40982;BME280;26708;50.304;19.028;2023-02-21T01:20:07;97670.94;;;9.34;61.75
40982;BME280;26708;50.304;19.028;2023-02-21T01:22:28;97573.28;;;8.81;61.98
40982;BME280;26708;50.304;19.028;2023-02-21T01:24:54;97492.19;;;8.28;62.32
40982;BME280;26708;50.304;19.028;2023-02-21T01:27:12;97567.28;;;8.73;62.82
40982;BME280;26708;50.304;19.028;2023-02-21T01:30:02;97442.06;;;8.02;63.04
40982;BME280;26708;50.304;19.028;2023-02-21T01:32:46;97561.41;;;8.57;63.20
40982;BME280;26708;50.304;19.028;2023-02-21T01:35:15;97678.84;;;9.28;63.56
40982;BME280;26708;50.304;19.028;2023-02-21T01:37:51;97461.34;;;7.88;64.00
40982;BME280;26708;50.304;19.028;2023-02-21T01:40:16;97720.44;;;9.45;64.64
40982;BME280;26708;50.304;19.028;2023-02-21T01:42:34;97437.94;;;7.83;64.89
40982;BME280;26708;50.304;19.028;2023-02-21T01:48:11;97565.03;;;8.41;65.89
40982;BME280;26708;50.304;19.028;2023-02-21T01:50:31;97646.25;;;8.85;66.52
40982;BME280;26708;50.304;19.028;2023-02-21T01:52:52;97652.34;;;8.87;66.92
40982;BME280;26708;50.304;19.028;2023-02-21T01:55:31;97651.41;;;8.94;67.26
40982;BME280;26708;50.304;19.028;2023-02-21T01:58:04;97443.34;;;7.64;67.46
40982;BME280;26708;50.304;19.028;2023-02-21T02:03:34;97502.03;;;7.97;68.19
40982;BME280;26708;50.304;19.028;2023-02-21T02:06:16;97564.31;;;8.27;68.40
40982;BME280;26708;50.304;19.028;2023-02-21T02:12:01;97699.06;;;9.08;69.09
40982;BME280;26708;50.304;19.028;2023-02-21T02:14:52;97696.50;;;9.07;69.20
40982;BME280;26708;50.304;19.028;2023-02-21T02:18:24;97434.75;;;7.54;69.31
40982;BME280;26708;50.304;19.028;2023-02-21T02:24:48;97549.59;;;8.19;69.72
40982;BME280;26708;50.304;19.028;2023-02-21T02:27:40;97661.06;;;8.86;70.09
40982;BME280;26708;50.304;19.028;2023-02-21T02:33:50;97416.72;;;7.33;70.20
40982;BME280;26708;50.304;19.028;2023-02-21T02:37:34;97429.72;;;7.33;70.32
40982;BME280;26708;50.304;19.028;2023-02-21T02:40:01;97431.50;;;7.31;70.62
40982;BME280;26708;50.304;19.028;2023-02-21T02:42:39;97457.31;;;7.55;70.65
40982;BME280;26708;50.304;19.028;2023-02-21T02:51:51;97510.03;;;7.78;70.77
40982;BME280;26708;50.304;19.028;2023-02-21T02:54:19;97572.16;;;8.21;70.75
40982;BME280;26708;50.304;19.028;2023-02-21T02:56:43;97606.81;;;8.34;71.04
40982;BME280;26708;50.304;19.028;2023-02-21T02:59:06;97435.84;;;7.26;70.94
40982;BME280;26708;50.304;19.028;2023-02-21T03:01:34;97523.72;;;7.99;71.07
40982;BME280;26708;50.304;19.028;2023-02-21T03:04:11;97454.84;;;7.39;71.00
40982;BME280;26708;50.304;19.028;2023-02-21T03:06:53;97435.09;;;7.17;71.26
40982;BME280;26708;50.304;19.028;2023-02-21T03:09:42;97567.91;;;8.08;71.16
40982;BME280;26708;50.304;19.028;2023-02-21T03:23:44;97627.53;;;8.49;71.42
40982;BME280;26708;50.304;19.028;2023-02-21T03:29:13;97578.34;;;8.11;71.10
40982;BME280;26708;50.304;19.028;2023-02-21T03:37:29;97579.19;;;8.13;71.61
40982;BME280;26708;50.304;19.028;2023-02-21T03:40:24;97406.50;;;7.12;71.31
40982;BME280;26708;50.304;19.028;2023-02-21T03:43:09;97491.97;;;7.59;71.47
40982;BME280;26708;50.304;19.028;2023-02-21T03:49:14;97684.59;;;8.80;71.38
40982;BME280;26708;50.304;19.028;2023-02-21T03:57:40;97491.22;;;7.46;71.50
40982;BME280;26708;50.304;19.028;2023-02-21T04:06:11;97521.50;;;7.55;71.68
40982;BME280;26708;50.304;19.028;2023-02-21T04:08:20;97584.59;;;7.89;71.59
40982;BME280;26708;50.304;19.028;2023-02-21T04:10:48;97509.38;;;7.57;71.79
40982;BME280;26708;50.304;19.028;2023-02-21T04:13:01;97565.66;;;7.71;71.79
40982;BME280;26708;50.304;19.028;2023-02-21T04:15:18;97559.44;;;7.87;71.91
40982;BME280;26708;50.304;19.028;2023-02-21T04:19:57;97424.75;;;7.06;71.76
40982;BME280;26708;50.304;19.028;2023-02-21T04:22:19;97417.88;;;6.99;71.64
40982;BME280;26708;50.304;19.028;2023-02-21T04:27:54;97498.03;;;7.61;71.62
40982;BME280;26708;50.304;19.028;2023-02-21T04:30:48;97621.59;;;8.33;71.71
40982;BME280;26708;50.304;19.028;2023-02-21T04:33:39;97422.97;;;7.14;71.50
40982;BME280;26708;50.304;19.028;2023-02-21T04:35:48;97643.22;;;8.43;71.68
40982;BME280;26708;50.304;19.028;2023-02-21T04:38:12;97557.69;;;7.89;71.65
40982;BME280;26708;50.304;19.028;2023-02-21T04:40:22;97508.53;;;7.50;71.57
40982;BME280;26708;50.304;19.028;2023-02-21T04:42:54;97608.69;;;8.17;71.54
40982;BME280;26708;50.304;19.028;2023-02-21T04:44:59;97693.31;;;8.78;71.54
40982;BME280;26708;50.304;19.028;2023-02-21T04:47:08;97632.81;;;8.41;71.44
40982;BME280;26708;50.304;19.028;2023-02-21T04:49:52;97687.22;;;8.77;71.53
40982;BME280;26708;50.304;19.028;2023-02-21T04:52:22;97510.22;;;7.59;71.31
40982;BME280;26708;50.304;19.028;2023-02-21T04:55:08;97548.94;;;7.96;71.24
40982;BME280;26708;50.304;19.028;2023-02-21T04:57:28;97486.84;;;7.50;71.33
40982;BME280;26708;50.304;19.028;2023-02-21T05:00:03;97571.50;;;7.98;71.41
40982;BME280;26708;50.304;19.028;2023-02-21T05:05:01;97480.00;;;7.37;71.51
40982;BME280;26708;50.304;19.028;2023-02-21T05:07:37;97536.03;;;7.81;71.51
40982;BME280;26708;50.304;19.028;2023-02-21T05:10:35;97705.53;;;8.73;71.50
40982;BME280;26708;50.304;19.028;2023-02-21T05:12:42;97402.31;;;6.93;71.41
40982;BME280;26708;50.304;19.028;2023-02-21T05:14:59;97403.22;;;6.85;71.73
40982;BME280;26708;50.304;19.028;2023-02-21T05:18:14;97717.78;;;8.65;71.95
40982;BME280;26708;50.304;19.028;2023-02-21T05:20:23;97672.81;;;8.39;71.82
40982;BME280;26708;50.304;19.028;2023-02-21T05:22:31;97708.22;;;8.65;71.94
40982;BME280;26708;50.304;19.028;2023-02-21T05:24:52;97577.63;;;7.91;71.79
40982;BME280;26708;50.304;19.028;2023-02-21T05:33:37;97716.00;;;8.71;71.78
40982;BME280;26708;50.304;19.028;2023-02-21T05:35:57;97503.41;;;7.43;71.57
40982;BME280;26708;50.304;19.028;2023-02-21T05:38:03;97565.53;;;7.86;71.54
40982;BME280;26708;50.304;19.028;2023-02-21T05:40:16;97505.88;;;7.56;71.43
40982;BME280;26708;50.304;19.028;2023-02-21T05:42:49;97562.78;;;8.02;71.25
40982;BME280;26708;50.304;19.028;2023-02-21T05:44:56;97623.34;;;8.33;71.32
40982;BME280;26708;50.304;19.028;2023-02-21T05:47:04;97694.16;;;8.78;71.47
40982;BME280;26708;50.304;19.028;2023-02-21T05:49:14;97637.09;;;8.48;71.29
40982;BME280;26708;50.304;19.028;2023-02-21T05:51:19;97698.53;;;8.79;71.14
40982;BME280;26708;50.304;19.028;2023-02-21T05:53:23;97694.16;;;8.78;71.12
40982;BME280;26708;50.304;19.028;2023-02-21T05:55:29;97701.97;;;8.80;71.29
40982;BME280;26708;50.304;19.028;2023-02-21T05:57:37;97693.28;;;8.81;71.31
40982;BME280;26708;50.304;19.028;2023-02-21T05:59:42;97697.59;;;8.83;71.23
40982;BME280;26708;50.304;19.028;2023-02-21T06:01:49;97687.16;;;8.85;71.18
40982;BME280;26708;50.304;19.028;2023-02-21T06:03:54;97688.94;;;8.83;71.01
40982;BME280;26708;50.304;19.028;2023-02-21T06:06:01;97544.59;;;7.98;71.17
40982;BME280;26708;50.304;19.028;2023-02-21T06:08:06;97693.22;;;8.85;71.02
40982;BME280;26708;50.304;19.028;2023-02-21T06:10:11;97579.97;;;8.20;70.99
40982;BME280;26708;50.304;19.028;2023-02-21T06:12:16;97686.28;;;8.84;71.04
40982;BME280;26708;50.304;19.028;2023-02-21T06:14:22;97676.88;;;8.70;70.94
40982;BME280;26708;50.304;19.028;2023-02-21T06:16:32;97677.75;;;8.69;71.00
40982;BME280;26708;50.304;19.028;2023-02-21T06:18:37;97701.06;;;8.85;71.02
40982;BME280;26708;50.304;19.028;2023-02-21T06:20:43;97701.06;;;8.85;71.03
40982;BME280;26708;50.304;19.028;2023-02-21T06:22:50;97715.88;;;8.85;71.00
40982;BME280;26708;50.304;19.028;2023-02-21T06:24:55;97683.81;;;8.69;71.16
40982;BME280;26708;50.304;19.028;2023-02-21T06:27:00;97676.88;;;8.68;71.15
40982;BME280;26708;50.304;19.028;2023-02-21T06:29:05;97698.44;;;8.85;71.19
40982;BME280;26708;50.304;19.028;2023-02-21T06:31:10;97683.13;;;8.55;71.26
40982;BME280;26708;50.304;19.028;2023-02-21T06:33:16;97719.41;;;8.79;71.14
40982;BME280;26708;50.304;19.028;2023-02-21T06:35:20;97699.56;;;8.60;71.15
40982;BME280;26708;50.304;19.028;2023-02-21T06:37:25;97709.91;;;8.69;71.15
40982;BME280;26708;50.304;19.028;2023-02-21T06:39:33;97590.69;;;7.85;71.05
40982;BME280;26708;50.304;19.028;2023-02-21T06:41:38;97743.69;;;8.86;71.03
40982;BME280;26708;50.304;19.028;2023-02-21T06:43:42;97741.03;;;8.89;71.05
40982;BME280;26708;50.304;19.028;2023-02-21T06:45:48;97673.53;;;8.54;71.12
40982;BME280;26708;50.304;19.028;2023-02-21T06:47:52;97730.59;;;8.90;70.94
40982;BME280;26708;50.304;19.028;2023-02-21T06:49:57;97732.34;;;8.88;71.00
40982;BME280;26708;50.304;19.028;2023-02-21T06:52:04;97714.22;;;8.75;70.88
40982;BME280;26708;50.304;19.028;2023-02-21T06:54:09;97747.97;;;8.91;70.97
40982;BME280;26708;50.304;19.028;2023-02-21T06:56:16;97621.66;;;8.24;71.07
40982;BME280;26708;50.304;19.028;2023-02-21T06:58:22;97746.19;;;8.96;71.12
40982;BME280;26708;50.304;19.028;2023-02-21T07:00:26;97591.38;;;8.11;71.20
40982;BME280;26708;50.304;19.028;2023-02-21T07:02:31;97742.66;;;9.03;70.98
40982;BME280;26708;50.304;19.028;2023-02-21T07:04:36;97719.28;;;8.90;70.73
40982;BME280;26708;50.304;19.028;2023-02-21T07:06:41;97644.00;;;8.51;70.75
40982;BME280;26708;50.304;19.028;2023-02-21T07:08:46;97748.66;;;9.10;70.52
40982;BME280;26708;50.304;19.028;2023-02-21T07:10:51;97743.44;;;9.10;70.57
40982;BME280;26708;50.304;19.028;2023-02-21T07:12:59;97708.81;;;8.91;70.37
40982;BME280;26708;50.304;19.028;2023-02-21T07:15:04;97747.78;;;9.09;70.66
40982;BME280;26708;50.304;19.028;2023-02-21T07:17:10;97748.66;;;9.11;70.60
40982;BME280;26708;50.304;19.028;2023-02-21T07:19:15;97695.88;;;8.82;70.59
40982;BME280;26708;50.304;19.028;2023-02-21T07:21:21;97736.50;;;9.09;70.57
40982;BME280;26708;50.304;19.028;2023-02-21T07:23:26;97537.66;;;7.95;70.32
40982;BME280;26708;50.304;19.028;2023-02-21T07:25:31;97752.94;;;9.15;70.49
40982;BME280;26708;50.304;19.028;2023-02-21T07:27:35;97713.09;;;9.00;70.41
40982;BME280;26708;50.304;19.028;2023-02-21T07:29:45;97754.66;;;9.19;70.40
40982;BME280;26708;50.304;19.028;2023-02-21T07:31:50;97673.47;;;8.60;70.36
40982;BME280;26708;50.304;19.028;2023-02-21T07:33:57;97765.91;;;9.24;70.46
40982;BME280;26708;50.304;19.028;2023-02-21T07:36:03;97759.78;;;9.30;70.41
40982;BME280;26708;50.304;19.028;2023-02-21T07:38:18;97566.09;;;8.21;69.91
40982;BME280;26708;50.304;19.028;2023-02-21T07:40:23;97758.00;;;9.33;70.12
40982;BME280;26708;50.304;19.028;2023-02-21T07:42:29;97751.84;;;9.36;70.24
40982;BME280;26708;50.304;19.028;2023-02-21T07:44:33;97731.13;;;9.21;70.01
40982;BME280;26708;50.304;19.028;2023-02-21T07:46:41;97648.13;;;8.76;69.80
40982;BME280;26708;50.304;19.028;2023-02-21T07:48:47;97739.72;;;9.32;69.89
40982;BME280;26708;50.304;19.028;2023-02-21T07:50:51;97617.94;;;8.52;69.78
40982;BME280;26708;50.304;19.028;2023-02-21T07:52:56;97750.91;;;9.43;70.05
40982;BME280;26708;50.304;19.028;2023-02-21T07:55:01;97704.34;;;9.07;69.93
40982;BME280;26708;50.304;19.028;2023-02-21T07:57:06;97749.06;;;9.52;69.78
40982;BME280;26708;50.304;19.028;2023-02-21T07:59:10;97760.28;;;9.59;69.57
40982;BME280;26708;50.304;19.028;2023-02-21T08:01:16;97710.88;;;9.41;69.43
40982;BME280;26708;50.304;19.028;2023-02-21T08:03:23;97755.81;;;9.71;69.24
40982;BME280;26708;50.304;19.028;2023-02-21T08:05:28;97750.50;;;9.79;69.04
40982;BME280;26708;50.304;19.028;2023-02-21T08:07:34;97626.13;;;8.98;68.78
40982;BME280;26708;50.304;19.028;2023-02-21T08:09:39;97773.06;;;9.84;68.57
40982;BME280;26708;50.304;19.028;2023-02-21T08:11:44;97757.38;;;9.86;68.56
40982;BME280;26708;50.304;19.028;2023-02-21T08:13:49;97633.88;;;9.05;68.20
40982;BME280;26708;50.304;19.028;2023-02-21T08:15:54;97782.63;;;9.87;68.41
40982;BME280;26708;50.304;19.028;2023-02-21T08:17:58;97783.53;;;9.84;68.23
40982;BME280;26708;50.304;19.028;2023-02-21T08:20:07;97780.03;;;9.85;68.39
40982;BME280;26708;50.304;19.028;2023-02-21T08:22:13;97761.72;;;9.85;68.44
40982;BME280;26708;50.304;19.028;2023-02-21T08:24:18;97775.69;;;9.86;68.34
40982;BME280;26708;50.304;19.028;2023-02-21T08:26:23;97780.03;;;9.85;68.25
40982;BME280;26708;50.304;19.028;2023-02-21T08:28:28;97778.25;;;9.89;68.19
40982;BME280;26708;50.304;19.028;2023-02-21T08:30:32;97667.53;;;9.28;68.10
40982;BME280;26708;50.304;19.028;2023-02-21T08:32:38;97766.94;;;9.87;68.28
40982;BME280;26708;50.304;19.028;2023-02-21T08:34:44;97605.47;;;8.78;68.12
40982;BME280;26708;50.304;19.028;2023-02-21T08:36:52;97780.03;;;9.85;68.31
40982;BME280;26708;50.304;19.028;2023-02-21T08:38:57;97782.63;;;9.85;68.09
40982;BME280;26708;50.304;19.028;2023-02-21T08:41:01;97750.63;;;9.67;68.38
40982;BME280;26708;50.304;19.028;2023-02-21T08:43:06;97773.13;;;9.81;68.30
40982;BME280;26708;50.304;19.028;2023-02-21T08:45:15;97795.69;;;9.87;68.24
40982;BME280;26708;50.304;19.028;2023-02-21T08:47:21;97780.91;;;9.84;67.88
40982;BME280;26708;50.304;19.028;2023-02-21T08:49:25;97784.41;;;9.82;67.85
40982;BME280;26708;50.304;19.028;2023-02-21T08:51:32;97782.69;;;9.84;68.17
40982;BME280;26708;50.304;19.028;2023-02-21T08:53:40;97754.13;;;9.69;67.82
40982;BME280;26708;50.304;19.028;2023-02-21T08:55:44;97788.69;;;9.90;67.98
40982;BME280;26708;50.304;19.028;2023-02-21T08:57:52;97793.84;;;9.93;68.07
40982;BME280;26708;50.304;19.028;2023-02-21T08:59:57;97765.34;;;9.75;68.15
40982;BME280;26708;50.304;19.028;2023-02-21T09:02:02;97796.47;;;9.93;68.48
40982;BME280;26708;50.304;19.028;2023-02-21T09:04:14;97781.84;;;9.80;68.64
40982;BME280;26708;50.304;19.028;2023-02-21T09:06:19;97811.28;;;9.94;68.74
40982;BME280;26708;50.304;19.028;2023-02-21T09:08:23;97757.50;;;9.75;68.81
40982;BME280;26708;50.304;19.028;2023-02-21T09:10:34;97799.03;;;9.98;68.35
40982;BME280;26708;50.304;19.028;2023-02-21T09:12:40;97802.63;;;9.89;68.36
40982;BME280;26708;50.304;19.028;2023-02-21T09:14:45;97807.78;;;9.95;68.37
40982;BME280;26708;50.304;19.028;2023-02-21T09:16:50;97815.66;;;9.92;68.14
40982;BME280;26708;50.304;19.028;2023-02-21T09:18:56;97796.53;;;9.90;68.10
40982;BME280;26708;50.304;19.028;2023-02-21T09:21:03;97804.41;;;9.87;67.77
40982;BME280;26708;50.304;19.028;2023-02-21T09:23:27;97786.19;;;9.81;68.07
40982;BME280;26708;50.304;19.028;2023-02-21T09:25:36;97785.31;;;9.82;68.32
40982;BME280;26708;50.304;19.028;2023-02-21T09:27:41;97788.75;;;9.84;68.14
40982;BME280;26708;50.304;19.028;2023-02-21T09:29:50;97810.25;;;10.07;67.89
40982;BME280;26708;50.304;19.028;2023-02-21T09:31:57;97791.22;;;9.95;67.77
40982;BME280;26708;50.304;19.028;2023-02-21T09:34:01;97758.28;;;9.85;67.54
40982;BME280;26708;50.304;19.028;2023-02-21T09:44:50;97842.09;;;10.36;67.19
40982;BME280;26708;50.304;19.028;2023-02-21T09:46:59;97843.78;;;10.40;67.15
40982;BME280;26708;50.304;19.028;2023-02-21T09:49:12;97837.56;;;10.49;67.17
40982;BME280;26708;50.304;19.028;2023-02-21T09:51:24;97815.81;;;10.45;66.65
40982;BME280;26708;50.304;19.028;2023-02-21T09:53:34;97781.91;;;10.39;66.59
40982;BME280;26708;50.304;19.028;2023-02-21T09:55:42;97751.63;;;10.22;66.44
40982;BME280;26708;50.304;19.028;2023-02-21T09:57:48;97830.88;;;10.87;66.23
40982;BME280;26708;50.304;19.028;2023-02-21T09:59:56;97803.19;;;10.74;66.08
40982;BME280;26708;50.304;19.028;2023-02-21T10:02:19;97704.63;;;10.19;66.24
40982;BME280;26708;50.304;19.028;2023-02-21T10:04:54;97824.69;;;10.94;66.54
40982;BME280;26708;50.304;19.028;2023-02-21T10:07:13;97829.97;;;10.93;66.75
40982;BME280;26708;50.304;19.028;2023-02-21T10:09:33;97713.22;;;10.25;66.36
40982;BME280;26708;50.304;19.028;2023-02-21T10:11:55;97829.91;;;10.96;66.90
40982;BME280;26708;50.304;19.028;2023-02-21T10:14:18;97763.22;;;10.63;66.52
40982;BME280;26708;50.304;19.028;2023-02-21T10:16:39;97819.34;;;11.02;66.40
40982;BME280;26708;50.304;19.028;2023-02-21T10:19:02;97676.78;;;10.16;66.18
40982;BME280;26708;50.304;19.028;2023-02-21T10:21:20;97738.81;;;10.63;65.69
40982;BME280;26708;50.304;19.028;2023-02-21T10:23:35;97812.06;;;11.19;66.10
40982;BME280;26708;50.304;19.028;2023-02-21T10:25:43;97716.16;;;10.62;65.69
40982;BME280;26708;50.304;19.028;2023-02-21T10:27:52;97833.72;;;11.28;65.51
40982;BME280;26708;50.304;19.028;2023-02-21T10:30:02;97816.25;;;11.29;65.15
40982;BME280;26708;50.304;19.028;2023-02-21T10:32:13;97831.03;;;11.31;65.55
40982;BME280;26708;50.304;19.028;2023-02-21T10:34:22;97726.47;;;10.71;64.88
40982;BME280;26708;50.304;19.028;2023-02-21T10:36:29;97730.75;;;10.75;64.26
40982;BME280;26708;50.304;19.028;2023-02-21T10:38:34;97748.16;;;10.77;63.92
40982;BME280;26708;50.304;19.028;2023-02-21T10:40:44;97627.31;;;10.03;64.18
40982;BME280;26708;50.304;19.028;2023-02-21T10:42:59;97840.84;;;11.20;64.65
40982;BME280;26708;50.304;19.028;2023-02-21T10:45:08;97739.97;;;10.45;65.18
40982;BME280;26708;50.304;19.028;2023-02-21T10:47:22;97847.16;;;11.07;65.27
40982;BME280;26708;50.304;19.028;2023-02-21T10:49:39;97847.25;;;11.01;65.13
40982;BME280;26708;50.304;19.028;2023-02-21T10:52:08;97734.97;;;10.29;65.84
40982;BME280;26708;50.304;19.028;2023-02-21T10:54:19;97856.16;;;10.91;65.90
40982;BME280;26708;50.304;19.028;2023-02-21T10:56:28;97814.63;;;10.66;66.44
40982;BME280;26708;50.304;19.028;2023-02-21T10:58:34;97825.88;;;10.72;66.59
40982;BME280;26708;50.304;19.028;2023-02-21T11:00:43;97856.19;;;10.87;66.87
40982;BME280;26708;50.304;19.028;2023-02-21T11:02:55;97842.19;;;10.91;67.09
40982;BME280;26708;50.304;19.028;2023-02-21T11:05:11;97848.28;;;10.93;66.93
40982;BME280;26708;50.304;19.028;2023-02-21T11:07:18;97753.25;;;10.32;66.22
40982;BME280;26708;50.304;19.028;2023-02-21T11:09:32;97856.16;;;10.93;66.33
40982;BME280;26708;50.304;19.028;2023-02-21T11:11:42;97858.72;;;10.94;66.41
40982;BME280;26708;50.304;19.028;2023-02-21T11:13:48;97859.66;;;10.90;65.22
40982;BME280;26708;50.304;19.028;2023-02-21T11:16:11;97852.75;;;10.85;65.08
40982;BME280;26708;50.304;19.028;2023-02-21T11:18:24;97774.94;;;10.40;65.36
40982;BME280;26708;50.304;19.028;2023-02-21T11:20:30;97766.50;;;10.20;65.31
40982;BME280;26708;50.304;19.028;2023-02-21T11:22:36;97859.72;;;10.86;65.45
40982;BME280;26708;50.304;19.028;2023-02-21T11:24:56;97795.88;;;10.37;65.63
40982;BME280;26708;50.304;19.028;2023-02-21T11:27:05;97826.75;;;10.73;66.17
40982;BME280;26708;50.304;19.028;2023-02-21T11:29:13;97862.41;;;10.81;65.88
40982;BME280;26708;50.304;19.028;2023-02-21T11:31:27;97783.00;;;10.22;66.00
40982;BME280;26708;50.304;19.028;2023-02-21T11:33:46;97769.28;;;10.08;66.56
40982;BME280;26708;50.304;19.028;2023-02-21T11:36:09;97869.66;;;10.60;66.79
40982;BME280;26708;50.304;19.028;2023-02-21T11:38:32;97829.97;;;10.31;67.27
40982;BME280;26708;50.304;19.028;2023-02-21T11:40:44;97844.72;;;10.36;67.68
40982;BME280;26708;50.304;19.028;2023-02-21T11:45:31;97881.28;;;10.39;68.13
40982;BME280;26708;50.304;19.028;2023-02-21T11:47:43;97774.19;;;9.65;68.26
40982;BME280;26708;50.304;19.028;2023-02-21T11:50:06;97880.53;;;10.31;68.61
40982;BME280;26708;50.304;19.028;2023-02-21T11:52:21;97811.50;;;9.75;69.09
40982;BME280;26708;50.304;19.028;2023-02-21T11:54:30;97883.88;;;10.42;68.84
40982;BME280;26708;50.304;19.028;2023-02-21T11:56:45;97877.69;;;10.48;68.63
40982;BME280;26708;50.304;19.028;2023-02-21T11:59:02;97836.88;;;10.35;68.00
40982;BME280;26708;50.304;19.028;2023-02-21T12:01:25;97870.47;;;10.65;66.95
40982;BME280;26708;50.304;19.028;2023-02-21T12:03:55;97850.44;;;10.65;65.66
40982;BME280;26708;50.304;19.028;2023-02-21T12:06:22;97723.34;;;9.89;64.83
40982;BME280;26708;50.304;19.028;2023-02-21T12:08:41;97879.00;;;10.80;65.11
40982;BME280;26708;50.304;19.028;2023-02-21T12:10:59;97784.69;;;10.27;64.93
40982;BME280;26708;50.304;19.028;2023-02-21T12:13:27;97783.81;;;10.27;63.86
40982;BME280;26708;50.304;19.028;2023-02-21T12:15:53;97863.31;;;10.77;62.87
40982;BME280;26708;50.304;19.028;2023-02-21T12:18:25;97853.13;;;10.58;62.95
40982;BME280;26708;50.304;19.028;2023-02-21T12:23:43;97872.97;;;10.72;63.47
40982;BME280;26708;50.304;19.028;2023-02-21T12:26:11;97875.56;;;10.75;63.00
40982;BME280;26708;50.304;19.028;2023-02-21T12:28:38;97867.66;;;10.78;61.91
40982;BME280;26708;50.304;19.028;2023-02-21T12:31:15;97867.50;;;10.87;61.89
40982;BME280;26708;50.304;19.028;2023-02-21T12:33:40;97750.72;;;10.27;61.75
40982;BME280;26708;50.304;19.028;2023-02-21T12:36:05;97740.25;;;10.26;61.17
40982;BME280;26708;50.304;19.028;2023-02-21T12:38:35;97859.44;;;11.05;60.17
40982;BME280;26708;50.304;19.028;2023-02-21T12:41:02;97863.72;;;11.09;60.29
40982;BME280;26708;50.304;19.028;2023-02-21T12:43:30;97773.88;;;10.51;59.33
40982;BME280;26708;50.304;19.028;2023-02-21T12:46:00;97863.63;;;11.15;59.67
40982;BME280;26708;50.304;19.028;2023-02-21T12:48:19;97872.44;;;11.11;58.59
40982;BME280;26708;50.304;19.028;2023-02-21T12:50:37;97828.28;;;10.89;58.59
40982;BME280;26708;50.304;19.028;2023-02-21T12:52:55;97765.19;;;10.49;58.53
40982;BME280;26708;50.304;19.028;2023-02-21T12:55:17;97857.72;;;11.04;58.45
40982;BME280;26708;50.304;19.028;2023-02-21T12:57:31;97861.16;;;11.05;58.97
40982;BME280;26708;50.304;19.028;2023-02-21T12:59:51;97634.75;;;9.72;59.45
40982;BME280;26708;50.304;19.028;2023-02-21T13:02:15;97741.97;;;10.28;60.26
40982;BME280;26708;50.304;19.028;2023-02-21T13:04:35;97749.75;;;10.31;60.90
40982;BME280;26708;50.304;19.028;2023-02-21T13:06:57;97775.69;;;10.48;61.35
40982;BME280;26708;50.304;19.028;2023-02-21T13:09:19;97831.66;;;10.95;61.41
40982;BME280;26708;50.304;19.028;2023-02-21T13:11:36;97816.06;;;10.86;60.95
40982;BME280;26708;50.304;19.028;2023-02-21T13:13:47;97869.00;;;11.08;60.98
40982;BME280;26708;50.304;19.028;2023-02-21T13:15:52;97863.81;;;11.03;60.16
40982;BME280;26708;50.304;19.028;2023-02-21T13:18:03;97863.03;;;10.98;60.38
40982;BME280;26708;50.304;19.028;2023-02-21T13:20:17;97859.59;;;10.93;59.70
40982;BME280;26708;50.304;19.028;2023-02-21T13:25:37;97864.03;;;10.90;59.91
40982;BME280;26708;50.304;19.028;2023-02-21T13:28:05;97857.94;;;10.89;59.89
40982;BME280;26708;50.304;19.028;2023-02-21T13:30:21;97864.91;;;10.87;60.42
40982;BME280;26708;50.304;19.028;2023-02-21T13:32:38;97845.75;;;10.84;60.44
40982;BME280;26708;50.304;19.028;2023-02-21T13:34:53;97864.13;;;10.81;60.75
40982;BME280;26708;50.304;19.028;2023-02-21T13:37:05;97871.16;;;10.79;61.08
40982;BME280;26708;50.304;19.028;2023-02-21T13:39:21;97686.25;;;9.64;61.05
40982;BME280;26708;50.304;19.028;2023-02-21T13:41:35;97737.06;;;10.06;61.15